sensor_id;sensor_type;location;lat;lon;timestamp;temperature;humidity
21602;DHT22;10963;50.934;4.668;2023-05-14T00:01:40;15.30;99.90
21602;DHT22;10963;50.934;4.668;2023-05-14T00:04:15;15.30;99.90
21602;DHT22;10963;50.934;4.668;2023-05-14T00:06:41;15.40;99.90
21602;DHT22;10963;50.934;4.668;2023-05-14T00:09:07;15.40;99.90
21602;DHT22;10963;50.934;4.668;2023-05-14T00:11:35;15.50;99.90
21602;DHT22;10963;50.934;4.668;2023-05-14T00:14:01;15.50;99.90
21602;DHT22;10963;50.934;4.668;2023-05-14T00:16:29;15.30;99.90
21602;DHT22;10963;50.934;4.668;2023-05-14T00:18:55;15.30;99.90
21602;DHT22;10963;50.934;4.668;2023-05-14T00:21:20;15.40;99.90
21602;DHT22;10963;50.934;4.668;2023-05-14T00:23:46;15.30;99.90
21602;DHT22;10963;50.934;4.668;2023-05-14T00:26:14;15.20;99.90
21602;DHT22;10963;50.934;4.668;2023-05-14T00:28:40;15.20;99.90
21602;DHT22;10963;50.934;4.668;2023-05-14T00:31:10;15.10;99.90
21602;DHT22;10963;50.934;4.668;2023-05-14T00:33:36;15.00;99.90
21602;DHT22;10963;50.934;4.668;2023-05-14T00:36:04;14.90;99.90
21602;DHT22;10963;50.934;4.668;2023-05-14T00:38:32;14.90;99.90
21602;DHT22;10963;50.934;4.668;2023-05-14T00:40:58;15.00;99.90
21602;DHT22;10963;50.934;4.668;2023-05-14T00:43:26;15.20;99.90
21602;DHT22;10963;50.934;4.668;2023-05-14T00:45:53;15.10;99.90
21602;DHT22;10963;50.934;4.668;2023-05-14T00:48:20;15.00;99.90
21602;DHT22;10963;50.934;4.668;2023-05-14T00:50:49;14.90;99.90
21602;DHT22;10963;50.934;4.668;2023-05-14T00:53:15;14.90;99.90
21602;DHT22;10963;50.934;4.668;2023-05-14T00:55:44;14.90;99.90
21602;DHT22;10963;50.934;4.668;2023-05-14T00:58:14;14.80;99.90
21602;DHT22;10963;50.934;4.668;2023-05-14T01:00:41;14.80;99.90
21602;DHT22;10963;50.934;4.668;2023-05-14T01:03:07;14.80;99.90
21602;DHT22;10963;50.934;4.668;2023-05-14T01:11:50;14.50;99.90
21602;DHT22;10963;50.934;4.668;2023-05-14T01:14:29;14.50;99.90
21602;DHT22;10963;50.934;4.668;2023-05-14T01:17:01;14.40;99.90
21602;DHT22;10963;50.934;4.668;2023-05-14T01:22:04;14.30;99.90
21602;DHT22;10963;50.934;4.668;2023-05-14T01:24:30;14.30;99.90
21602;DHT22;10963;50.934;4.668;2023-05-14T01:32:40;14.20;99.90
21602;DHT22;10963;50.934;4.668;2023-05-14T01:35:07;14.10;99.90
21602;DHT22;10963;50.934;4.668;2023-05-14T01:37:37;14.20;99.90
21602;DHT22;10963;50.934;4.668;2023-05-14T01:40:05;14.10;99.90
21602;DHT22;10963;50.934;4.668;2023-05-14T01:42:32;14.00;99.90
21602;DHT22;10963;50.934;4.668;2023-05-14T01:44:58;14.00;99.90
21602;DHT22;10963;50.934;4.668;2023-05-14T01:47:23;14.00;99.90
21602;DHT22;10963;50.934;4.668;2023-05-14T01:49:49;14.10;99.90
21602;DHT22;10963;50.934;4.668;2023-05-14T01:52:16;14.20;99.90
21602;DHT22;10963;50.934;4.668;2023-05-14T01:54:45;14.20;99.90
21602;DHT22;10963;50.934;4.668;2023-05-14T01:57:11;14.20;99.90
21602;DHT22;10963;50.934;4.668;2023-05-14T01:59:39;14.10;99.90
21602;DHT22;10963;50.934;4.668;2023-05-14T02:02:07;14.00;99.90
21602;DHT22;10963;50.934;4.668;2023-05-14T02:04:35;14.00;99.90
21602;DHT22;10963;50.934;4.668;2023-05-14T02:07:04;14.00;99.90
21602;DHT22;10963;50.934;4.668;2023-05-14T02:09:30;14.10;99.90
21602;DHT22;10963;50.934;4.668;2023-05-14T02:11:58;14.10;99.90
21602;DHT22;10963;50.934;4.668;2023-05-14T02:14:24;14.00;99.90
21602;DHT22;10963;50.934;4.668;2023-05-14T02:16:51;14.00;99.90
21602;DHT22;10963;50.934;4.668;2023-05-14T02:19:17;14.00;99.90
21602;DHT22;10963;50.934;4.668;2023-05-14T02:21:43;13.90;99.90
21602;DHT22;10963;50.934;4.668;2023-05-14T02:24:09;13.90;99.90
21602;DHT22;10963;50.934;4.668;2023-05-14T02:26:36;14.00;99.90
21602;DHT22;10963;50.934;4.668;2023-05-14T02:29:02;14.00;99.90
21602;DHT22;10963;50.934;4.668;2023-05-14T02:31:30;14.10;99.90
21602;DHT22;10963;50.934;4.668;2023-05-14T02:34:00;14.10;99.90
21602;DHT22;10963;50.934;4.668;2023-05-14T02:36:31;14.10;99.90
21602;DHT22;10963;50.934;4.668;2023-05-14T02:38:59;14.00;99.90
21602;DHT22;10963;50.934;4.668;2023-05-14T02:41:27;14.20;99.90
21602;DHT22;10963;50.934;4.668;2023-05-14T02:43:53;14.20;99.90
21602;DHT22;10963;50.934;4.668;2023-05-14T02:46:21;14.20;99.90
21602;DHT22;10963;50.934;4.668;2023-05-14T02:48:49;14.20;99.90
21602;DHT22;10963;50.934;4.668;2023-05-14T02:51:14;14.10;99.90
21602;DHT22;10963;50.934;4.668;2023-05-14T02:53:45;14.20;99.90
21602;DHT22;10963;50.934;4.668;2023-05-14T02:56:11;14.10;99.90
21602;DHT22;10963;50.934;4.668;2023-05-14T02:58:39;14.10;99.90
21602;DHT22;10963;50.934;4.668;2023-05-14T03:01:05;13.90;99.90
21602;DHT22;10963;50.934;4.668;2023-05-14T03:03:32;13.90;99.90
21602;DHT22;10963;50.934;4.668;2023-05-14T03:06:01;13.90;99.90
21602;DHT22;10963;50.934;4.668;2023-05-14T03:08:26;13.90;99.90
21602;DHT22;10963;50.934;4.668;2023-05-14T03:10:52;13.80;99.90
21602;DHT22;10963;50.934;4.668;2023-05-14T03:13:18;13.80;99.90
21602;DHT22;10963;50.934;4.668;2023-05-14T03:15:45;13.90;99.90
21602;DHT22;10963;50.934;4.668;2023-05-14T03:18:14;13.90;99.90
21602;DHT22;10963;50.934;4.668;2023-05-14T03:20:40;13.90;99.90
21602;DHT22;10963;50.934;4.668;2023-05-14T03:23:06;13.90;99.90
21602;DHT22;10963;50.934;4.668;2023-05-14T03:25:32;13.80;99.90
21602;DHT22;10963;50.934;4.668;2023-05-14T03:28:02;13.90;99.90
21602;DHT22;10963;50.934;4.668;2023-05-14T03:30:32;13.90;99.90
21602;DHT22;10963;50.934;4.668;2023-05-14T03:32:58;14.00;99.90
21602;DHT22;10963;50.934;4.668;2023-05-14T03:35:26;13.90;99.90
21602;DHT22;10963;50.934;4.668;2023-05-14T03:37:52;13.80;99.90
21602;DHT22;10963;50.934;4.668;2023-05-14T03:40:22;13.90;99.90
21602;DHT22;10963;50.934;4.668;2023-05-14T03:42:52;14.00;99.90
21602;DHT22;10963;50.934;4.668;2023-05-14T03:45:20;14.00;99.90
21602;DHT22;10963;50.934;4.668;2023-05-14T03:47:46;14.20;99.90
21602;DHT22;10963;50.934;4.668;2023-05-14T03:50:16;14.10;99.90
21602;DHT22;10963;50.934;4.668;2023-05-14T03:52:44;14.00;99.90
21602;DHT22;10963;50.934;4.668;2023-05-14T03:55:10;14.00;99.90
21602;DHT22;10963;50.934;4.668;2023-05-14T03:57:36;14.00;99.90
21602;DHT22;10963;50.934;4.668;2023-05-14T04:00:06;14.00;99.90
21602;DHT22;10963;50.934;4.668;2023-05-14T04:02:34;13.90;99.90
21602;DHT22;10963;50.934;4.668;2023-05-14T04:05:00;13.80;99.90
21602;DHT22;10963;50.934;4.668;2023-05-14T04:07:26;13.70;99.90
21602;DHT22;10963;50.934;4.668;2023-05-14T04:09:54;13.90;99.90
21602;DHT22;10963;50.934;4.668;2023-05-14T04:12:22;13.90;99.90
21602;DHT22;10963;50.934;4.668;2023-05-14T04:14:50;14.00;99.90
21602;DHT22;10963;50.934;4.668;2023-05-14T04:17:15;14.10;99.90
21602;DHT22;10963;50.934;4.668;2023-05-14T04:19:41;14.20;99.90
21602;DHT22;10963;50.934;4.668;2023-05-14T04:22:07;14.10;99.90
21602;DHT22;10963;50.934;4.668;2023-05-14T04:24:32;14.10;99.90
21602;DHT22;10963;50.934;4.668;2023-05-14T04:26:58;14.00;99.90
21602;DHT22;10963;50.934;4.668;2023-05-14T04:29:24;14.10;99.90
21602;DHT22;10963;50.934;4.668;2023-05-14T04:31:50;14.10;99.90
21602;DHT22;10963;50.934;4.668;2023-05-14T04:34:16;14.00;99.90
21602;DHT22;10963;50.934;4.668;2023-05-14T04:36:41;14.00;99.90
21602;DHT22;10963;50.934;4.668;2023-05-14T04:39:09;14.00;99.90
21602;DHT22;10963;50.934;4.668;2023-05-14T04:41:37;14.10;99.90
21602;DHT22;10963;50.934;4.668;2023-05-14T04:44:05;14.30;99.90
21602;DHT22;10963;50.934;4.668;2023-05-14T04:46:33;14.10;99.90
21602;DHT22;10963;50.934;4.668;2023-05-14T04:48:59;14.00;99.90
21602;DHT22;10963;50.934;4.668;2023-05-14T04:51:30;14.10;99.90
21602;DHT22;10963;50.934;4.668;2023-05-14T04:53:56;14.20;99.90
21602;DHT22;10963;50.934;4.668;2023-05-14T04:56:23;14.20;99.90
21602;DHT22;10963;50.934;4.668;2023-05-14T04:58:49;14.40;99.90
21602;DHT22;10963;50.934;4.668;2023-05-14T05:01:19;14.50;99.90
21602;DHT22;10963;50.934;4.668;2023-05-14T05:03:49;14.60;99.90
21602;DHT22;10963;50.934;4.668;2023-05-14T05:06:15;14.70;99.90
21602;DHT22;10963;50.934;4.668;2023-05-14T05:08:41;14.70;99.90
21602;DHT22;10963;50.934;4.668;2023-05-14T05:11:08;14.60;99.90
21602;DHT22;10963;50.934;4.668;2023-05-14T05:13:37;14.60;99.90
21602;DHT22;10963;50.934;4.668;2023-05-14T05:16:03;14.70;99.90
21602;DHT22;10963;50.934;4.668;2023-05-14T05:18:28;14.70;99.90
21602;DHT22;10963;50.934;4.668;2023-05-14T05:20:54;14.60;99.90
21602;DHT22;10963;50.934;4.668;2023-05-14T05:23:20;14.50;99.90
21602;DHT22;10963;50.934;4.668;2023-05-14T05:25:50;14.50;99.90
21602;DHT22;10963;50.934;4.668;2023-05-14T05:28:18;14.50;99.90
21602;DHT22;10963;50.934;4.668;2023-05-14T05:30:44;14.70;99.90
21602;DHT22;10963;50.934;4.668;2023-05-14T05:33:11;14.80;99.90
21602;DHT22;10963;50.934;4.668;2023-05-14T05:35:36;15.00;99.90
21602;DHT22;10963;50.934;4.668;2023-05-14T05:38:05;15.20;99.90
21602;DHT22;10963;50.934;4.668;2023-05-14T05:40:30;15.10;99.90
21602;DHT22;10963;50.934;4.668;2023-05-14T05:42:56;15.00;99.90
21602;DHT22;10963;50.934;4.668;2023-05-14T05:45:22;15.20;99.90
21602;DHT22;10963;50.934;4.668;2023-05-14T05:47:48;15.40;99.90
21602;DHT22;10963;50.934;4.668;2023-05-14T05:50:13;15.40;99.90
21602;DHT22;10963;50.934;4.668;2023-05-14T05:52:41;15.60;99.90
21602;DHT22;10963;50.934;4.668;2023-05-14T05:55:07;15.70;99.90
21602;DHT22;10963;50.934;4.668;2023-05-14T05:57:36;15.80;99.90
21602;DHT22;10963;50.934;4.668;2023-05-14T06:00:02;15.80;99.90
21602;DHT22;10963;50.934;4.668;2023-05-14T06:02:39;15.90;99.90
21602;DHT22;10963;50.934;4.668;2023-05-14T06:05:06;15.90;99.90
21602;DHT22;10963;50.934;4.668;2023-05-14T06:07:35;15.70;99.90
21602;DHT22;10963;50.934;4.668;2023-05-14T06:10:01;16.00;99.90
21602;DHT22;10963;50.934;4.668;2023-05-14T06:12:29;16.20;99.90
21602;DHT22;10963;50.934;4.668;2023-05-14T06:14:55;16.20;99.90
21602;DHT22;10963;50.934;4.668;2023-05-14T06:17:25;16.30;99.90
21602;DHT22;10963;50.934;4.668;2023-05-14T06:19:54;16.60;99.90
21602;DHT22;10963;50.934;4.668;2023-05-14T06:22:19;16.40;99.90
21602;DHT22;10963;50.934;4.668;2023-05-14T06:24:46;16.30;99.90
21602;DHT22;10963;50.934;4.668;2023-05-14T06:27:11;16.50;99.90
21602;DHT22;10963;50.934;4.668;2023-05-14T06:29:37;16.60;99.90
21602;DHT22;10963;50.934;4.668;2023-05-14T06:32:03;16.80;99.90
21602;DHT22;10963;50.934;4.668;2023-05-14T06:34:29;16.80;99.90
21602;DHT22;10963;50.934;4.668;2023-05-14T06:36:58;16.80;99.90
21602;DHT22;10963;50.934;4.668;2023-05-14T06:39:23;16.60;99.90
21602;DHT22;10963;50.934;4.668;2023-05-14T06:41:50;16.60;99.90
21602;DHT22;10963;50.934;4.668;2023-05-14T06:44:17;16.50;99.90
21602;DHT22;10963;50.934;4.668;2023-05-14T06:46:43;16.30;99.90
21602;DHT22;10963;50.934;4.668;2023-05-14T06:49:09;16.00;99.90
21602;DHT22;10963;50.934;4.668;2023-05-14T06:51:34;15.70;99.90
21602;DHT22;10963;50.934;4.668;2023-05-14T06:54:00;15.60;99.90
21602;DHT22;10963;50.934;4.668;2023-05-14T06:56:26;15.40;99.90
21602;DHT22;10963;50.934;4.668;2023-05-14T06:58:51;15.30;99.90
21602;DHT22;10963;50.934;4.668;2023-05-14T07:01:19;15.30;99.90
21602;DHT22;10963;50.934;4.668;2023-05-14T07:03:47;15.60;99.90
21602;DHT22;10963;50.934;4.668;2023-05-14T07:06:18;15.70;99.90
21602;DHT22;10963;50.934;4.668;2023-05-14T07:08:44;15.60;99.90
21602;DHT22;10963;50.934;4.668;2023-05-14T07:11:14;15.90;99.90
21602;DHT22;10963;50.934;4.668;2023-05-14T07:13:42;16.00;99.90
21602;DHT22;10963;50.934;4.668;2023-05-14T07:16:08;16.20;99.90
21602;DHT22;10963;50.934;4.668;2023-05-14T07:18:36;16.50;99.90
21602;DHT22;10963;50.934;4.668;2023-05-14T07:21:02;16.70;99.90
21602;DHT22;10963;50.934;4.668;2023-05-14T07:23:33;16.50;99.90
21602;DHT22;10963;50.934;4.668;2023-05-14T07:26:06;16.40;99.90
21602;DHT22;10963;50.934;4.668;2023-05-14T07:28:32;16.60;99.90
21602;DHT22;10963;50.934;4.668;2023-05-14T07:31:00;16.70;99.90
21602;DHT22;10963;50.934;4.668;2023-05-14T07:33:31;16.70;99.90
21602;DHT22;10963;50.934;4.668;2023-05-14T07:35:57;16.90;99.90
21602;DHT22;10963;50.934;4.668;2023-05-14T07:38:23;16.80;99.90
21602;DHT22;10963;50.934;4.668;2023-05-14T07:40:48;16.70;99.90
21602;DHT22;10963;50.934;4.668;2023-05-14T07:43:14;16.80;99.90
21602;DHT22;10963;50.934;4.668;2023-05-14T07:45:40;16.90;99.90
21602;DHT22;10963;50.934;4.668;2023-05-14T07:48:06;17.00;99.90
21602;DHT22;10963;50.934;4.668;2023-05-14T07:50:35;17.00;99.90
21602;DHT22;10963;50.934;4.668;2023-05-14T07:53:00;16.80;99.90
21602;DHT22;10963;50.934;4.668;2023-05-14T07:55:28;16.90;99.90
21602;DHT22;10963;50.934;4.668;2023-05-14T07:57:54;17.20;99.90
21602;DHT22;10963;50.934;4.668;2023-05-14T08:00:22;17.10;99.90
21602;DHT22;10963;50.934;4.668;2023-05-14T08:02:48;17.10;99.90
21602;DHT22;10963;50.934;4.668;2023-05-14T08:05:14;17.10;99.90
21602;DHT22;10963;50.934;4.668;2023-05-14T08:07:40;17.30;99.90
21602;DHT22;10963;50.934;4.668;2023-05-14T08:10:06;17.30;99.90
21602;DHT22;10963;50.934;4.668;2023-05-14T08:12:37;17.30;99.90
21602;DHT22;10963;50.934;4.668;2023-05-14T08:15:04;17.10;99.90
21602;DHT22;10963;50.934;4.668;2023-05-14T08:17:32;17.40;99.90
21602;DHT22;10963;50.934;4.668;2023-05-14T08:20:00;17.80;99.90
21602;DHT22;10963;50.934;4.668;2023-05-14T08:22:26;17.90;99.90
21602;DHT22;10963;50.934;4.668;2023-05-14T08:24:54;17.80;99.90
21602;DHT22;10963;50.934;4.668;2023-05-14T08:27:20;17.90;99.90
21602;DHT22;10963;50.934;4.668;2023-05-14T08:29:48;18.20;99.90
21602;DHT22;10963;50.934;4.668;2023-05-14T08:32:16;18.30;99.90
21602;DHT22;10963;50.934;4.668;2023-05-14T08:34:41;18.30;99.90
21602;DHT22;10963;50.934;4.668;2023-05-14T08:37:12;18.00;99.90
21602;DHT22;10963;50.934;4.668;2023-05-14T08:39:43;18.20;99.90
21602;DHT22;10963;50.934;4.668;2023-05-14T08:42:11;18.50;99.90
21602;DHT22;10963;50.934;4.668;2023-05-14T08:45:02;19.00;99.90
21602;DHT22;10963;50.934;4.668;2023-05-14T08:47:30;19.50;99.90
21602;DHT22;10963;50.934;4.668;2023-05-14T08:50:04;19.90;99.90
21602;DHT22;10963;50.934;4.668;2023-05-14T08:52:33;20.40;99.90
21602;DHT22;10963;50.934;4.668;2023-05-14T08:55:01;20.70;99.90
21602;DHT22;10963;50.934;4.668;2023-05-14T08:57:28;20.70;99.90
21602;DHT22;10963;50.934;4.668;2023-05-14T08:59:55;20.40;99.90
21602;DHT22;10963;50.934;4.668;2023-05-14T09:02:30;20.00;99.90
21602;DHT22;10963;50.934;4.668;2023-05-14T09:04:59;19.70;99.90
21602;DHT22;10963;50.934;4.668;2023-05-14T09:07:27;19.60;99.90
21602;DHT22;10963;50.934;4.668;2023-05-14T09:09:56;19.90;99.90
21602;DHT22;10963;50.934;4.668;2023-05-14T09:12:23;20.10;99.90
21602;DHT22;10963;50.934;4.668;2023-05-14T09:14:50;20.20;99.90
21602;DHT22;10963;50.934;4.668;2023-05-14T09:17:18;20.30;99.90
21602;DHT22;10963;50.934;4.668;2023-05-14T09:19:48;20.30;99.90
21602;DHT22;10963;50.934;4.668;2023-05-14T09:22:15;20.90;99.90
21602;DHT22;10963;50.934;4.668;2023-05-14T09:24:41;20.90;99.90
21602;DHT22;10963;50.934;4.668;2023-05-14T09:27:17;21.30;99.90
21602;DHT22;10963;50.934;4.668;2023-05-14T09:29:47;21.50;99.90
21602;DHT22;10963;50.934;4.668;2023-05-14T09:32:18;22.00;99.90
21602;DHT22;10963;50.934;4.668;2023-05-14T09:34:47;22.50;99.90
21602;DHT22;10963;50.934;4.668;2023-05-14T09:37:12;22.70;99.90
21602;DHT22;10963;50.934;4.668;2023-05-14T09:39:38;23.10;99.90
21602;DHT22;10963;50.934;4.668;2023-05-14T09:42:05;23.00;99.90
21602;DHT22;10963;50.934;4.668;2023-05-14T09:44:33;23.20;99.90
21602;DHT22;10963;50.934;4.668;2023-05-14T09:47:00;23.00;99.90
21602;DHT22;10963;50.934;4.668;2023-05-14T09:49:26;23.40;99.90
21602;DHT22;10963;50.934;4.668;2023-05-14T09:51:54;23.50;99.90
21602;DHT22;10963;50.934;4.668;2023-05-14T09:54:25;23.50;99.90
21602;DHT22;10963;50.934;4.668;2023-05-14T09:56:52;23.70;99.90
21602;DHT22;10963;50.934;4.668;2023-05-14T09:59:18;24.00;99.90
21602;DHT22;10963;50.934;4.668;2023-05-14T10:01:47;23.80;99.90
21602;DHT22;10963;50.934;4.668;2023-05-14T10:04:16;23.70;99.90
21602;DHT22;10963;50.934;4.668;2023-05-14T10:06:44;23.70;99.90
21602;DHT22;10963;50.934;4.668;2023-05-14T10:09:12;23.80;99.90
21602;DHT22;10963;50.934;4.668;2023-05-14T10:11:43;24.20;99.90
21602;DHT22;10963;50.934;4.668;2023-05-14T10:16:49;23.50;99.90
21602;DHT22;10963;50.934;4.668;2023-05-14T10:19:15;23.50;99.90
21602;DHT22;10963;50.934;4.668;2023-05-14T10:21:47;23.80;99.90
21602;DHT22;10963;50.934;4.668;2023-05-14T10:24:17;23.90;99.90
21602;DHT22;10963;50.934;4.668;2023-05-14T10:26:46;23.80;99.90
21602;DHT22;10963;50.934;4.668;2023-05-14T10:29:19;23.70;99.90
21602;DHT22;10963;50.934;4.668;2023-05-14T10:31:51;24.00;99.90
21602;DHT22;10963;50.934;4.668;2023-05-14T10:40:02;24.80;99.90
21602;DHT22;10963;50.934;4.668;2023-05-14T10:42:37;25.00;99.90
21602;DHT22;10963;50.934;4.668;2023-05-14T10:45:12;25.00;99.90
21602;DHT22;10963;50.934;4.668;2023-05-14T10:47:41;24.80;99.90
21602;DHT22;10963;50.934;4.668;2023-05-14T10:50:11;24.70;99.90
21602;DHT22;10963;50.934;4.668;2023-05-14T10:52:43;24.90;99.90
21602;DHT22;10963;50.934;4.668;2023-05-14T10:55:15;25.10;99.90
21602;DHT22;10963;50.934;4.668;2023-05-14T10:57:43;25.40;99.90
21602;DHT22;10963;50.934;4.668;2023-05-14T11:00:13;24.80;99.90
21602;DHT22;10963;50.934;4.668;2023-05-14T11:02:40;25.20;99.90
21602;DHT22;10963;50.934;4.668;2023-05-14T11:05:08;25.30;99.90
21602;DHT22;10963;50.934;4.668;2023-05-14T11:07:39;25.40;99.90
21602;DHT22;10963;50.934;4.668;2023-05-14T11:10:10;24.70;99.90
21602;DHT22;10963;50.934;4.668;2023-05-14T11:12:42;24.40;99.90
21602;DHT22;10963;50.934;4.668;2023-05-14T11:15:14;24.20;99.90
21602;DHT22;10963;50.934;4.668;2023-05-14T11:17:46;23.90;99.90
21602;DHT22;10963;50.934;4.668;2023-05-14T11:20:15;23.80;99.90
21602;DHT22;10963;50.934;4.668;2023-05-14T11:22:45;23.30;99.90
21602;DHT22;10963;50.934;4.668;2023-05-14T11:25:14;22.90;99.90
21602;DHT22;10963;50.934;4.668;2023-05-14T11:27:44;22.50;99.90
21602;DHT22;10963;50.934;4.668;2023-05-14T11:30:18;22.50;99.90
21602;DHT22;10963;50.934;4.668;2023-05-14T11:32:45;22.40;99.90
21602;DHT22;10963;50.934;4.668;2023-05-14T11:35:11;22.20;99.90
21602;DHT22;10963;50.934;4.668;2023-05-14T11:37:39;22.20;99.90
21602;DHT22;10963;50.934;4.668;2023-05-14T11:40:15;22.30;99.90
21602;DHT22;10963;50.934;4.668;2023-05-14T11:42:41;22.50;99.90
21602;DHT22;10963;50.934;4.668;2023-05-14T11:45:10;22.30;99.90
21602;DHT22;10963;50.934;4.668;2023-05-14T11:47:40;22.50;99.90
21602;DHT22;10963;50.934;4.668;2023-05-14T11:50:06;22.60;99.90
21602;DHT22;10963;50.934;4.668;2023-05-14T11:52:39;22.50;99.90
21602;DHT22;10963;50.934;4.668;2023-05-14T11:55:11;22.30;99.90
21602;DHT22;10963;50.934;4.668;2023-05-14T11:57:40;22.70;99.90
21602;DHT22;10963;50.934;4.668;2023-05-14T12:00:10;22.70;99.90
21602;DHT22;10963;50.934;4.668;2023-05-14T12:02:47;22.50;99.90
21602;DHT22;10963;50.934;4.668;2023-05-14T12:05:13;22.40;99.90
21602;DHT22;10963;50.934;4.668;2023-05-14T12:07:39;22.70;99.90
21602;DHT22;10963;50.934;4.668;2023-05-14T12:10:07;22.80;99.90
21602;DHT22;10963;50.934;4.668;2023-05-14T12:12:35;23.00;99.90
21602;DHT22;10963;50.934;4.668;2023-05-14T12:15:10;23.00;99.90
21602;DHT22;10963;50.934;4.668;2023-05-14T12:17:37;23.00;99.90
21602;DHT22;10963;50.934;4.668;2023-05-14T12:20:10;23.00;99.90
21602;DHT22;10963;50.934;4.668;2023-05-14T12:22:36;23.00;99.90
21602;DHT22;10963;50.934;4.668;2023-05-14T12:25:03;22.90;99.90
21602;DHT22;10963;50.934;4.668;2023-05-14T12:27:31;23.10;99.90
21602;DHT22;10963;50.934;4.668;2023-05-14T12:30:03;23.30;99.90
21602;DHT22;10963;50.934;4.668;2023-05-14T12:32:33;23.30;99.90
21602;DHT22;10963;50.934;4.668;2023-05-14T12:35:02;23.50;99.90
21602;DHT22;10963;50.934;4.668;2023-05-14T12:37:28;23.40;99.90
21602;DHT22;10963;50.934;4.668;2023-05-14T12:39:53;23.60;99.90
21602;DHT22;10963;50.934;4.668;2023-05-14T12:42:21;23.70;99.90
21602;DHT22;10963;50.934;4.668;2023-05-14T12:44:52;23.70;99.90
21602;DHT22;10963;50.934;4.668;2023-05-14T12:47:20;23.60;99.90
21602;DHT22;10963;50.934;4.668;2023-05-14T12:49:46;23.30;99.90
21602;DHT22;10963;50.934;4.668;2023-05-14T12:52:11;23.40;99.90
21602;DHT22;10963;50.934;4.668;2023-05-14T12:54:39;23.50;99.90
21602;DHT22;10963;50.934;4.668;2023-05-14T12:57:07;23.40;99.90
21602;DHT22;10963;50.934;4.668;2023-05-14T12:59:35;23.50;99.90
21602;DHT22;10963;50.934;4.668;2023-05-14T13:02:03;23.70;99.90
21602;DHT22;10963;50.934;4.668;2023-05-14T13:04:29;23.60;99.90
21602;DHT22;10963;50.934;4.668;2023-05-14T13:06:58;23.80;99.90
21602;DHT22;10963;50.934;4.668;2023-05-14T13:09:24;23.50;99.90
21602;DHT22;10963;50.934;4.668;2023-05-14T13:11:52;23.60;99.90
21602;DHT22;10963;50.934;4.668;2023-05-14T13:14:18;23.60;99.90
21602;DHT22;10963;50.934;4.668;2023-05-14T13:16:45;23.60;99.90
21602;DHT22;10963;50.934;4.668;2023-05-14T13:19:13;23.70;99.90
21602;DHT22;10963;50.934;4.668;2023-05-14T13:21:39;23.70;99.90
21602;DHT22;10963;50.934;4.668;2023-05-14T13:24:09;23.80;99.90
21602;DHT22;10963;50.934;4.668;2023-05-14T13:26:38;23.80;99.90
21602;DHT22;10963;50.934;4.668;2023-05-14T13:29:04;23.60;99.90
21602;DHT22;10963;50.934;4.668;2023-05-14T13:31:34;23.90;99.90
21602;DHT22;10963;50.934;4.668;2023-05-14T13:34:00;23.90;99.90
21602;DHT22;10963;50.934;4.668;2023-05-14T13:36:27;24.20;99.90
21602;DHT22;10963;50.934;4.668;2023-05-14T13:38:55;24.30;99.90
21602;DHT22;10963;50.934;4.668;2023-05-14T13:41:21;24.40;99.90
21602;DHT22;10963;50.934;4.668;2023-05-14T13:43:46;24.50;99.90
21602;DHT22;10963;50.934;4.668;2023-05-14T13:46:12;24.50;99.90
21602;DHT22;10963;50.934;4.668;2023-05-14T13:48:40;24.30;99.90
21602;DHT22;10963;50.934;4.668;2023-05-14T13:51:06;24.10;99.90
21602;DHT22;10963;50.934;4.668;2023-05-14T13:53:34;23.90;99.90
21602;DHT22;10963;50.934;4.668;2023-05-14T13:56:00;24.20;99.90
21602;DHT22;10963;50.934;4.668;2023-05-14T13:58:28;24.10;99.90
21602;DHT22;10963;50.934;4.668;2023-05-14T14:00:54;24.00;99.90
21602;DHT22;10963;50.934;4.668;2023-05-14T14:03:21;24.10;99.90
21602;DHT22;10963;50.934;4.668;2023-05-14T14:05:46;24.00;99.90
21602;DHT22;10963;50.934;4.668;2023-05-14T14:08:12;24.00;99.90
21602;DHT22;10963;50.934;4.668;2023-05-14T14:10:38;24.10;99.90
21602;DHT22;10963;50.934;4.668;2023-05-14T14:13:09;24.10;99.90
21602;DHT22;10963;50.934;4.668;2023-05-14T14:15:35;24.10;99.90
21602;DHT22;10963;50.934;4.668;2023-05-14T14:18:04;24.20;99.90
21602;DHT22;10963;50.934;4.668;2023-05-14T14:20:30;24.20;99.90
21602;DHT22;10963;50.934;4.668;2023-05-14T14:22:56;24.40;99.90
21602;DHT22;10963;50.934;4.668;2023-05-14T14:25:26;24.70;99.90
21602;DHT22;10963;50.934;4.668;2023-05-14T14:27:56;25.00;99.90
21602;DHT22;10963;50.934;4.668;2023-05-14T14:30:22;25.20;99.90
21602;DHT22;10963;50.934;4.668;2023-05-14T14:32:48;25.10;99.90
21602;DHT22;10963;50.934;4.668;2023-05-14T14:35:16;24.90;99.90
21602;DHT22;10963;50.934;4.668;2023-05-14T14:37:42;24.80;99.90
21602;DHT22;10963;50.934;4.668;2023-05-14T14:40:12;24.60;99.90
21602;DHT22;10963;50.934;4.668;2023-05-14T14:42:38;24.70;99.90
21602;DHT22;10963;50.934;4.668;2023-05-14T14:45:06;24.70;99.90
21602;DHT22;10963;50.934;4.668;2023-05-14T14:47:34;24.90;99.90
21602;DHT22;10963;50.934;4.668;2023-05-14T14:50:03;24.70;99.90
21602;DHT22;10963;50.934;4.668;2023-05-14T14:52:29;24.80;99.90
21602;DHT22;10963;50.934;4.668;2023-05-14T14:54:54;24.60;99.90
21602;DHT22;10963;50.934;4.668;2023-05-14T14:57:23;24.30;99.90
21602;DHT22;10963;50.934;4.668;2023-05-14T14:59:51;24.20;99.90
21602;DHT22;10963;50.934;4.668;2023-05-14T15:02:17;24.10;99.90
21602;DHT22;10963;50.934;4.668;2023-05-14T15:04:42;23.90;99.90
21602;DHT22;10963;50.934;4.668;2023-05-14T15:07:08;23.90;99.90
21602;DHT22;10963;50.934;4.668;2023-05-14T15:09:34;23.90;99.90
21602;DHT22;10963;50.934;4.668;2023-05-14T15:12:00;23.80;99.90
21602;DHT22;10963;50.934;4.668;2023-05-14T15:14:25;23.80;99.90
21602;DHT22;10963;50.934;4.668;2023-05-14T15:16:55;23.80;99.90
21602;DHT22;10963;50.934;4.668;2023-05-14T15:19:24;23.60;99.90
21602;DHT22;10963;50.934;4.668;2023-05-14T15:21:54;23.40;99.90
21602;DHT22;10963;50.934;4.668;2023-05-14T15:24:22;23.20;99.90
21602;DHT22;10963;50.934;4.668;2023-05-14T15:26:50;23.20;99.90
21602;DHT22;10963;50.934;4.668;2023-05-14T15:29:16;23.00;99.90
21602;DHT22;10963;50.934;4.668;2023-05-14T15:31:45;22.80;99.90
21602;DHT22;10963;50.934;4.668;2023-05-14T15:34:13;22.70;99.90
21602;DHT22;10963;50.934;4.668;2023-05-14T15:36:41;22.60;99.90
21602;DHT22;10963;50.934;4.668;2023-05-14T15:39:11;22.50;99.90
21602;DHT22;10963;50.934;4.668;2023-05-14T15:41:42;22.60;99.90
21602;DHT22;10963;50.934;4.668;2023-05-14T15:44:10;22.30;99.90
21602;DHT22;10963;50.934;4.668;2023-05-14T15:46:35;22.20;99.90
21602;DHT22;10963;50.934;4.668;2023-05-14T15:49:02;22.20;99.90
21602;DHT22;10963;50.934;4.668;2023-05-14T15:51:30;21.90;99.90
21602;DHT22;10963;50.934;4.668;2023-05-14T15:53:56;21.80;99.90
21602;DHT22;10963;50.934;4.668;2023-05-14T15:56:26;21.80;99.90